sensor_id;sensor_type;location;lat;lon;timestamp;P1;durP1;ratioP1;P2;durP2;ratioP2
21356;SDS011;10836;53.068;18.234;2023-02-27T00:00:57;12.70;;;5.50;;
21356;SDS011;10836;53.068;18.234;2023-02-27T00:03:27;15.37;;;5.47;;
21356;SDS011;10836;53.068;18.234;2023-02-27T00:05:55;17.00;;;5.30;;
21356;SDS011;10836;53.068;18.234;2023-02-27T00:08:22;12.43;;;5.17;;
21356;SDS011;10836;53.068;18.234;2023-02-27T00:10:50;11.17;;;4.17;;
21356;SDS011;10836;53.068;18.234;2023-02-27T00:13:17;15.97;;;5.53;;
21356;SDS011;10836;53.068;18.234;2023-02-27T00:15:44;14.07;;;5.27;;
21356;SDS011;10836;53.068;18.234;2023-02-27T00:18:13;18.70;;;6.27;;
21356;SDS011;10836;53.068;18.234;2023-02-27T00:20:39;17.03;;;6.20;;
21356;SDS011;10836;53.068;18.234;2023-02-27T00:23:07;31.17;;;11.40;;
21356;SDS011;10836;53.068;18.234;2023-02-27T00:25:35;25.83;;;10.30;;
21356;SDS011;10836;53.068;18.234;2023-02-27T00:28:03;29.40;;;11.87;;
21356;SDS011;10836;53.068;18.234;2023-02-27T00:30:30;33.53;;;12.30;;
21356;SDS011;10836;53.068;18.234;2023-02-27T00:32:58;37.77;;;12.30;;
21356;SDS011;10836;53.068;18.234;2023-02-27T00:35:25;34.40;;;12.07;;
21356;SDS011;10836;53.068;18.234;2023-02-27T00:37:52;31.50;;;11.90;;
21356;SDS011;10836;53.068;18.234;2023-02-27T00:40:19;32.10;;;10.70;;
21356;SDS011;10836;53.068;18.234;2023-02-27T00:42:46;45.47;;;14.83;;
21356;SDS011;10836;53.068;18.234;2023-02-27T00:45:14;34.23;;;12.43;;
21356;SDS011;10836;53.068;18.234;2023-02-27T00:47:42;39.90;;;13.63;;
21356;SDS011;10836;53.068;18.234;2023-02-27T00:50:08;29.03;;;8.53;;
21356;SDS011;10836;53.068;18.234;2023-02-27T00:52:36;28.23;;;8.33;;
21356;SDS011;10836;53.068;18.234;2023-02-27T00:55:03;24.60;;;8.17;;
21356;SDS011;10836;53.068;18.234;2023-02-27T00:57:31;24.63;;;7.43;;
21356;SDS011;10836;53.068;18.234;2023-02-27T00:59:58;21.10;;;7.43;;
21356;SDS011;10836;53.068;18.234;2023-02-27T01:02:25;21.50;;;6.40;;
21356;SDS011;10836;53.068;18.234;2023-02-27T01:04:54;18.20;;;6.03;;
21356;SDS011;10836;53.068;18.234;2023-02-27T01:07:22;20.40;;;6.57;;
21356;SDS011;10836;53.068;18.234;2023-02-27T01:09:49;15.47;;;5.53;;
21356;SDS011;10836;53.068;18.234;2023-02-27T01:12:16;13.97;;;5.10;;
21356;SDS011;10836;53.068;18.234;2023-02-27T01:14:43;10.67;;;4.47;;
21356;SDS011;10836;53.068;18.234;2023-02-27T01:17:10;13.67;;;4.67;;
21356;SDS011;10836;53.068;18.234;2023-02-27T01:19:37;14.67;;;4.97;;
21356;SDS011;10836;53.068;18.234;2023-02-27T01:22:05;14.97;;;5.13;;
21356;SDS011;10836;53.068;18.234;2023-02-27T01:24:32;11.80;;;4.50;;
21356;SDS011;10836;53.068;18.234;2023-02-27T01:26:59;9.70;;;4.23;;
21356;SDS011;10836;53.068;18.234;2023-02-27T01:29:26;16.10;;;4.33;;
21356;SDS011;10836;53.068;18.234;2023-02-27T01:31:53;15.20;;;6.17;;
21356;SDS011;10836;53.068;18.234;2023-02-27T01:34:20;13.37;;;4.83;;
21356;SDS011;10836;53.068;18.234;2023-02-27T01:36:47;12.33;;;5.53;;
21356;SDS011;10836;53.068;18.234;2023-02-27T01:39:14;13.23;;;5.20;;
21356;SDS011;10836;53.068;18.234;2023-02-27T01:41:42;13.17;;;5.67;;
21356;SDS011;10836;53.068;18.234;2023-02-27T01:44:09;13.93;;;5.70;;
21356;SDS011;10836;53.068;18.234;2023-02-27T01:46:38;13.87;;;5.90;;
21356;SDS011;10836;53.068;18.234;2023-02-27T01:49:20;20.27;;;6.07;;
21356;SDS011;10836;53.068;18.234;2023-02-27T01:52:02;15.67;;;5.80;;
21356;SDS011;10836;53.068;18.234;2023-02-27T01:54:35;14.60;;;5.30;;
21356;SDS011;10836;53.068;18.234;2023-02-27T01:57:06;14.43;;;5.40;;
21356;SDS011;10836;53.068;18.234;2023-02-27T01:59:35;14.57;;;4.73;;
21356;SDS011;10836;53.068;18.234;2023-02-27T02:02:08;11.00;;;4.80;;
21356;SDS011;10836;53.068;18.234;2023-02-27T02:04:42;10.50;;;5.17;;
21356;SDS011;10836;53.068;18.234;2023-02-27T02:07:11;13.50;;;4.97;;
21356;SDS011;10836;53.068;18.234;2023-02-27T02:09:41;13.87;;;5.50;;
21356;SDS011;10836;53.068;18.234;2023-02-27T02:12:12;13.07;;;5.47;;
21356;SDS011;10836;53.068;18.234;2023-02-27T02:14:42;18.10;;;7.07;;
21356;SDS011;10836;53.068;18.234;2023-02-27T02:19:59;16.13;;;5.40;;
21356;SDS011;10836;53.068;18.234;2023-02-27T02:26:17;13.77;;;5.10;;
21356;SDS011;10836;53.068;18.234;2023-02-27T02:29:12;17.27;;;5.40;;
21356;SDS011;10836;53.068;18.234;2023-02-27T02:40:22;13.07;;;4.70;;
21356;SDS011;10836;53.068;18.234;2023-02-27T02:43:14;13.43;;;5.30;;
21356;SDS011;10836;53.068;18.234;2023-02-27T02:46:06;8.50;;;4.13;;
21356;SDS011;10836;53.068;18.234;2023-02-27T02:48:46;14.83;;;4.10;;
21356;SDS011;10836;53.068;18.234;2023-02-27T02:51:25;7.00;;;3.17;;
21356;SDS011;10836;53.068;18.234;2023-02-27T02:54:03;9.97;;;3.40;;
21356;SDS011;10836;53.068;18.234;2023-02-27T02:56:38;9.57;;;3.60;;
21356;SDS011;10836;53.068;18.234;2023-02-27T02:59:13;10.27;;;3.83;;
21356;SDS011;10836;53.068;18.234;2023-02-27T03:01:49;10.87;;;3.00;;
21356;SDS011;10836;53.068;18.234;2023-02-27T03:04:31;8.73;;;3.47;;
21356;SDS011;10836;53.068;18.234;2023-02-27T03:07:14;9.40;;;3.53;;
21356;SDS011;10836;53.068;18.234;2023-02-27T03:09:49;9.07;;;3.93;;
21356;SDS011;10836;53.068;18.234;2023-02-27T03:12:21;13.97;;;5.10;;
21356;SDS011;10836;53.068;18.234;2023-02-27T03:14:54;12.33;;;4.53;;
21356;SDS011;10836;53.068;18.234;2023-02-27T03:17:55;12.00;;;4.83;;
21356;SDS011;10836;53.068;18.234;2023-02-27T03:20:31;10.20;;;4.50;;
21356;SDS011;10836;53.068;18.234;2023-02-27T03:23:03;9.50;;;4.40;;
21356;SDS011;10836;53.068;18.234;2023-02-27T03:25:36;11.17;;;4.40;;
21356;SDS011;10836;53.068;18.234;2023-02-27T03:28:07;9.17;;;4.10;;
21356;SDS011;10836;53.068;18.234;2023-02-27T03:30:38;11.50;;;4.80;;
21356;SDS011;10836;53.068;18.234;2023-02-27T03:33:11;10.03;;;4.13;;
21356;SDS011;10836;53.068;18.234;2023-02-27T03:35:47;9.93;;;3.93;;
21356;SDS011;10836;53.068;18.234;2023-02-27T03:38:25;7.90;;;3.90;;
21356;SDS011;10836;53.068;18.234;2023-02-27T03:41:07;14.30;;;4.47;;
21356;SDS011;10836;53.068;18.234;2023-02-27T03:46:41;12.90;;;4.87;;
21356;SDS011;10836;53.068;18.234;2023-02-27T03:49:08;11.70;;;5.10;;
21356;SDS011;10836;53.068;18.234;2023-02-27T03:51:35;14.87;;;7.23;;
21356;SDS011;10836;53.068;18.234;2023-02-27T03:54:10;13.03;;;5.27;;
21356;SDS011;10836;53.068;18.234;2023-02-27T03:56:49;13.83;;;5.83;;
21356;SDS011;10836;53.068;18.234;2023-02-27T03:59:24;12.63;;;5.20;;
21356;SDS011;10836;53.068;18.234;2023-02-27T04:01:53;17.30;;;6.43;;
21356;SDS011;10836;53.068;18.234;2023-02-27T04:04:23;23.70;;;7.87;;
21356;SDS011;10836;53.068;18.234;2023-02-27T04:10:18;25.83;;;9.47;;
21356;SDS011;10836;53.068;18.234;2023-02-27T04:13:02;26.43;;;9.73;;
21356;SDS011;10836;53.068;18.234;2023-02-27T04:19:04;29.27;;;9.33;;
21356;SDS011;10836;53.068;18.234;2023-02-27T04:27:02;34.67;;;11.47;;
21356;SDS011;10836;53.068;18.234;2023-02-27T04:35:17;34.03;;;11.03;;
21356;SDS011;10836;53.068;18.234;2023-02-27T04:37:52;29.03;;;11.40;;
21356;SDS011;10836;53.068;18.234;2023-02-27T04:40:31;30.37;;;11.87;;
21356;SDS011;10836;53.068;18.234;2023-02-27T04:43:02;27.57;;;10.00;;
21356;SDS011;10836;53.068;18.234;2023-02-27T04:45:31;22.03;;;8.90;;
21356;SDS011;10836;53.068;18.234;2023-02-27T04:48:05;22.23;;;8.53;;
21356;SDS011;10836;53.068;18.234;2023-02-27T04:50:40;18.20;;;8.47;;
21356;SDS011;10836;53.068;18.234;2023-02-27T04:53:14;21.10;;;9.37;;
21356;SDS011;10836;53.068;18.234;2023-02-27T04:55:51;26.43;;;9.90;;
21356;SDS011;10836;53.068;18.234;2023-02-27T04:58:25;26.50;;;11.37;;
21356;SDS011;10836;53.068;18.234;2023-02-27T05:01:03;28.70;;;12.23;;
21356;SDS011;10836;53.068;18.234;2023-02-27T05:03:38;29.23;;;11.67;;
21356;SDS011;10836;53.068;18.234;2023-02-27T05:06:13;28.80;;;12.47;;
21356;SDS011;10836;53.068;18.234;2023-02-27T05:11:53;31.10;;;12.53;;
21356;SDS011;10836;53.068;18.234;2023-02-27T05:14:29;26.93;;;9.27;;
21356;SDS011;10836;53.068;18.234;2023-02-27T05:17:07;18.60;;;7.73;;
21356;SDS011;10836;53.068;18.234;2023-02-27T05:19:36;17.90;;;7.27;;
21356;SDS011;10836;53.068;18.234;2023-02-27T05:24:51;15.83;;;6.00;;
21356;SDS011;10836;53.068;18.234;2023-02-27T05:30:55;14.40;;;6.50;;
21356;SDS011;10836;53.068;18.234;2023-02-27T05:33:30;14.37;;;5.80;;
21356;SDS011;10836;53.068;18.234;2023-02-27T05:36:05;18.10;;;7.73;;
21356;SDS011;10836;53.068;18.234;2023-02-27T05:38:43;14.80;;;7.17;;
21356;SDS011;10836;53.068;18.234;2023-02-27T05:41:22;15.30;;;6.60;;
21356;SDS011;10836;53.068;18.234;2023-02-27T05:44:02;17.17;;;7.13;;
21356;SDS011;10836;53.068;18.234;2023-02-27T05:46:36;16.07;;;7.13;;
21356;SDS011;10836;53.068;18.234;2023-02-27T05:51:49;29.50;;;9.83;;
21356;SDS011;10836;53.068;18.234;2023-02-27T05:55:03;26.03;;;9.70;;
21356;SDS011;10836;53.068;18.234;2023-02-27T05:57:15;26.53;;;9.60;;
21356;SDS011;10836;53.068;18.234;2023-02-27T05:59:53;37.07;;;14.50;;
21356;SDS011;10836;53.068;18.234;2023-02-27T06:02:26;35.80;;;12.80;;
21356;SDS011;10836;53.068;18.234;2023-02-27T06:04:53;41.93;;;14.13;;
21356;SDS011;10836;53.068;18.234;2023-02-27T06:07:21;49.07;;;14.13;;
21356;SDS011;10836;53.068;18.234;2023-02-27T06:09:48;54.03;;;18.00;;
21356;SDS011;10836;53.068;18.234;2023-02-27T06:12:16;61.23;;;19.97;;
21356;SDS011;10836;53.068;18.234;2023-02-27T06:14:43;50.93;;;18.03;;
21356;SDS011;10836;53.068;18.234;2023-02-27T06:17:10;58.90;;;22.77;;
21356;SDS011;10836;53.068;18.234;2023-02-27T06:19:37;65.87;;;24.03;;
21356;SDS011;10836;53.068;18.234;2023-02-27T06:22:04;67.80;;;22.70;;
21356;SDS011;10836;53.068;18.234;2023-02-27T06:24:31;32.37;;;14.27;;
21356;SDS011;10836;53.068;18.234;2023-02-27T06:26:58;17.67;;;8.80;;
21356;SDS011;10836;53.068;18.234;2023-02-27T06:29:25;22.37;;;9.07;;
21356;SDS011;10836;53.068;18.234;2023-02-27T06:31:52;18.20;;;7.83;;
21356;SDS011;10836;53.068;18.234;2023-02-27T06:34:19;19.33;;;7.43;;
21356;SDS011;10836;53.068;18.234;2023-02-27T06:36:46;25.53;;;9.30;;
21356;SDS011;10836;53.068;18.234;2023-02-27T06:39:14;39.57;;;11.60;;
21356;SDS011;10836;53.068;18.234;2023-02-27T06:41:41;26.80;;;10.67;;
21356;SDS011;10836;53.068;18.234;2023-02-27T06:44:08;26.23;;;11.03;;
21356;SDS011;10836;53.068;18.234;2023-02-27T06:46:35;33.03;;;11.20;;
21356;SDS011;10836;53.068;18.234;2023-02-27T06:49:02;48.13;;;14.40;;
21356;SDS011;10836;53.068;18.234;2023-02-27T06:51:29;42.90;;;15.67;;
21356;SDS011;10836;53.068;18.234;2023-02-27T06:53:56;46.40;;;15.67;;
21356;SDS011;10836;53.068;18.234;2023-02-27T06:56:23;42.83;;;16.53;;
21356;SDS011;10836;53.068;18.234;2023-02-27T06:58:50;40.47;;;16.37;;
21356;SDS011;10836;53.068;18.234;2023-02-27T07:01:17;55.67;;;18.70;;
21356;SDS011;10836;53.068;18.234;2023-02-27T07:03:44;50.30;;;18.63;;
21356;SDS011;10836;53.068;18.234;2023-02-27T07:06:16;47.87;;;17.47;;
21356;SDS011;10836;53.068;18.234;2023-02-27T07:08:43;118.97;;;32.20;;
21356;SDS011;10836;53.068;18.234;2023-02-27T07:11:31;62.40;;;18.40;;
21356;SDS011;10836;53.068;18.234;2023-02-27T07:13:58;23.77;;;9.00;;
21356;SDS011;10836;53.068;18.234;2023-02-27T07:16:25;40.17;;;12.53;;
21356;SDS011;10836;53.068;18.234;2023-02-27T07:18:52;60.83;;;19.33;;
21356;SDS011;10836;53.068;18.234;2023-02-27T07:21:19;59.47;;;17.63;;
21356;SDS011;10836;53.068;18.234;2023-02-27T07:23:46;52.53;;;17.77;;
21356;SDS011;10836;53.068;18.234;2023-02-27T07:26:13;49.83;;;18.00;;
21356;SDS011;10836;53.068;18.234;2023-02-27T07:28:40;49.30;;;16.87;;
21356;SDS011;10836;53.068;18.234;2023-02-27T07:31:07;44.73;;;15.53;;
21356;SDS011;10836;53.068;18.234;2023-02-27T07:33:34;39.03;;;14.67;;
21356;SDS011;10836;53.068;18.234;2023-02-27T07:36:01;34.07;;;12.67;;
21356;SDS011;10836;53.068;18.234;2023-02-27T07:38:28;34.47;;;11.27;;
21356;SDS011;10836;53.068;18.234;2023-02-27T07:40:55;30.27;;;12.17;;
21356;SDS011;10836;53.068;18.234;2023-02-27T07:43:24;31.87;;;11.87;;
21356;SDS011;10836;53.068;18.234;2023-02-27T07:45:51;28.63;;;11.30;;
21356;SDS011;10836;53.068;18.234;2023-02-27T07:48:18;32.93;;;13.17;;
21356;SDS011;10836;53.068;18.234;2023-02-27T07:50:45;27.47;;;12.30;;
21356;SDS011;10836;53.068;18.234;2023-02-27T07:53:12;32.43;;;12.30;;
21356;SDS011;10836;53.068;18.234;2023-02-27T07:55:39;33.70;;;13.43;;
21356;SDS011;10836;53.068;18.234;2023-02-27T07:58:06;38.03;;;14.03;;
21356;SDS011;10836;53.068;18.234;2023-02-27T08:00:33;40.80;;;13.10;;
21356;SDS011;10836;53.068;18.234;2023-02-27T08:03:00;31.67;;;13.50;;
21356;SDS011;10836;53.068;18.234;2023-02-27T08:05:27;31.03;;;12.87;;
21356;SDS011;10836;53.068;18.234;2023-02-27T08:07:54;33.67;;;13.23;;
21356;SDS011;10836;53.068;18.234;2023-02-27T08:10:21;31.13;;;12.97;;
21356;SDS011;10836;53.068;18.234;2023-02-27T08:12:48;45.83;;;14.53;;
21356;SDS011;10836;53.068;18.234;2023-02-27T08:15:15;33.77;;;13.00;;
21356;SDS011;10836;53.068;18.234;2023-02-27T08:17:43;21.93;;;8.90;;
21356;SDS011;10836;53.068;18.234;2023-02-27T08:20:11;27.90;;;10.50;;
21356;SDS011;10836;53.068;18.234;2023-02-27T08:22:40;26.83;;;9.40;;
21356;SDS011;10836;53.068;18.234;2023-02-27T08:25:08;26.87;;;8.60;;
21356;SDS011;10836;53.068;18.234;2023-02-27T08:27:37;43.57;;;15.37;;
21356;SDS011;10836;53.068;18.234;2023-02-27T08:30:06;39.20;;;15.40;;
21356;SDS011;10836;53.068;18.234;2023-02-27T08:32:35;32.17;;;12.43;;
21356;SDS011;10836;53.068;18.234;2023-02-27T08:35:04;31.63;;;11.67;;
21356;SDS011;10836;53.068;18.234;2023-02-27T08:37:31;37.60;;;13.20;;
21356;SDS011;10836;53.068;18.234;2023-02-27T08:39:58;33.07;;;14.77;;
21356;SDS011;10836;53.068;18.234;2023-02-27T08:42:25;35.97;;;14.63;;
21356;SDS011;10836;53.068;18.234;2023-02-27T08:44:52;31.73;;;15.17;;
21356;SDS011;10836;53.068;18.234;2023-02-27T08:47:19;34.20;;;13.60;;
21356;SDS011;10836;53.068;18.234;2023-02-27T08:49:46;29.37;;;13.20;;
21356;SDS011;10836;53.068;18.234;2023-02-27T08:52:13;29.27;;;12.03;;
21356;SDS011;10836;53.068;18.234;2023-02-27T08:54:40;24.10;;;10.77;;
21356;SDS011;10836;53.068;18.234;2023-02-27T08:57:07;24.10;;;9.40;;
21356;SDS011;10836;53.068;18.234;2023-02-27T08:59:34;23.23;;;8.73;;
21356;SDS011;10836;53.068;18.234;2023-02-27T09:02:01;18.20;;;8.27;;
21356;SDS011;10836;53.068;18.234;2023-02-27T09:04:28;15.10;;;7.67;;
21356;SDS011;10836;53.068;18.234;2023-02-27T09:06:55;18.60;;;8.13;;
21356;SDS011;10836;53.068;18.234;2023-02-27T09:09:23;17.33;;;8.63;;
21356;SDS011;10836;53.068;18.234;2023-02-27T09:11:50;15.83;;;6.43;;
21356;SDS011;10836;53.068;18.234;2023-02-27T09:14:17;14.60;;;6.87;;
21356;SDS011;10836;53.068;18.234;2023-02-27T09:16:44;11.97;;;5.93;;
21356;SDS011;10836;53.068;18.234;2023-02-27T09:19:12;13.83;;;5.50;;
21356;SDS011;10836;53.068;18.234;2023-02-27T09:21:40;21.00;;;5.73;;
21356;SDS011;10836;53.068;18.234;2023-02-27T09:24:08;15.67;;;6.07;;
21356;SDS011;10836;53.068;18.234;2023-02-27T09:26:46;13.93;;;6.40;;
21356;SDS011;10836;53.068;18.234;2023-02-27T09:29:14;17.07;;;6.63;;
21356;SDS011;10836;53.068;18.234;2023-02-27T09:31:41;17.73;;;7.53;;
21356;SDS011;10836;53.068;18.234;2023-02-27T09:34:08;14.00;;;5.43;;
21356;SDS011;10836;53.068;18.234;2023-02-27T09:36:35;14.23;;;5.17;;
21356;SDS011;10836;53.068;18.234;2023-02-27T09:39:02;13.27;;;5.40;;
21356;SDS011;10836;53.068;18.234;2023-02-27T09:43:58;13.30;;;5.03;;
21356;SDS011;10836;53.068;18.234;2023-02-27T09:46:27;10.77;;;4.80;;
21356;SDS011;10836;53.068;18.234;2023-02-27T09:48:56;18.27;;;5.63;;
21356;SDS011;10836;53.068;18.234;2023-02-27T09:51:26;13.77;;;4.97;;
21356;SDS011;10836;53.068;18.234;2023-02-27T09:53:55;8.53;;;3.70;;
21356;SDS011;10836;53.068;18.234;2023-02-27T10:01:56;9.53;;;4.00;;
21356;SDS011;10836;53.068;18.234;2023-02-27T10:04:31;12.80;;;4.13;;
21356;SDS011;10836;53.068;18.234;2023-02-27T10:07:13;9.13;;;3.63;;
21356;SDS011;10836;53.068;18.234;2023-02-27T10:09:51;10.30;;;3.63;;
21356;SDS011;10836;53.068;18.234;2023-02-27T10:18:05;11.30;;;2.87;;
21356;SDS011;10836;53.068;18.234;2023-02-27T10:20:53;6.77;;;2.87;;
21356;SDS011;10836;53.068;18.234;2023-02-27T10:23:31;6.97;;;2.80;;
21356;SDS011;10836;53.068;18.234;2023-02-27T10:25:59;8.13;;;3.23;;
21356;SDS011;10836;53.068;18.234;2023-02-27T10:28:28;10.67;;;3.13;;
21356;SDS011;10836;53.068;18.234;2023-02-27T10:30:55;9.13;;;3.17;;
21356;SDS011;10836;53.068;18.234;2023-02-27T10:33:38;10.23;;;3.20;;
21356;SDS011;10836;53.068;18.234;2023-02-27T10:36:07;7.83;;;2.70;;
21356;SDS011;10836;53.068;18.234;2023-02-27T10:38:59;8.07;;;2.50;;
21356;SDS011;10836;53.068;18.234;2023-02-27T10:41:31;7.83;;;2.70;;
21356;SDS011;10836;53.068;18.234;2023-02-27T10:43:58;4.30;;;2.10;;
21356;SDS011;10836;53.068;18.234;2023-02-27T10:46:27;6.63;;;1.80;;
21356;SDS011;10836;53.068;18.234;2023-02-27T10:48:59;7.53;;;1.90;;
21356;SDS011;10836;53.068;18.234;2023-02-27T10:51:29;5.20;;;2.00;;
21356;SDS011;10836;53.068;18.234;2023-02-27T10:54:15;6.37;;;2.00;;
21356;SDS011;10836;53.068;18.234;2023-02-27T10:56:47;4.40;;;1.90;;
21356;SDS011;10836;53.068;18.234;2023-02-27T11:04:46;5.97;;;2.40;;
21356;SDS011;10836;53.068;18.234;2023-02-27T11:07:33;9.00;;;2.77;;
21356;SDS011;10836;53.068;18.234;2023-02-27T11:12:57;7.17;;;2.33;;
21356;SDS011;10836;53.068;18.234;2023-02-27T11:15:36;6.87;;;2.40;;
21356;SDS011;10836;53.068;18.234;2023-02-27T11:18:23;11.40;;;3.40;;
21356;SDS011;10836;53.068;18.234;2023-02-27T11:21:08;6.07;;;1.60;;
21356;SDS011;10836;53.068;18.234;2023-02-27T11:23:48;2.73;;;1.13;;
21356;SDS011;10836;53.068;18.234;2023-02-27T11:26:32;4.07;;;1.57;;
21356;SDS011;10836;53.068;18.234;2023-02-27T11:29:16;7.27;;;2.37;;
21356;SDS011;10836;53.068;18.234;2023-02-27T11:34:31;4.83;;;1.30;;
21356;SDS011;10836;53.068;18.234;2023-02-27T11:37:05;3.05;;;1.40;;
21356;SDS011;10836;53.068;18.234;2023-02-27T11:39:47;3.80;;;1.30;;
21356;SDS011;10836;53.068;18.234;2023-02-27T11:42:21;5.57;;;1.83;;
21356;SDS011;10836;53.068;18.234;2023-02-27T11:44:53;8.03;;;2.17;;
21356;SDS011;10836;53.068;18.234;2023-02-27T11:47:24;6.03;;;1.47;;
21356;SDS011;10836;53.068;18.234;2023-02-27T11:55:31;5.23;;;1.50;;
21356;SDS011;10836;53.068;18.234;2023-02-27T11:58:03;2.80;;;1.23;;
21356;SDS011;10836;53.068;18.234;2023-02-27T12:00:40;3.27;;;1.50;;
21356;SDS011;10836;53.068;18.234;2023-02-27T12:06:17;10.67;;;4.00;;
21356;SDS011;10836;53.068;18.234;2023-02-27T12:08:53;12.13;;;3.77;;
21356;SDS011;10836;53.068;18.234;2023-02-27T12:11:27;10.20;;;3.07;;
21356;SDS011;10836;53.068;18.234;2023-02-27T12:14:00;8.27;;;2.97;;
21356;SDS011;10836;53.068;18.234;2023-02-27T12:16:40;14.37;;;4.33;;
21356;SDS011;10836;53.068;18.234;2023-02-27T12:19:17;10.13;;;3.40;;
21356;SDS011;10836;53.068;18.234;2023-02-27T12:21:52;7.97;;;2.17;;
21356;SDS011;10836;53.068;18.234;2023-02-27T12:24:24;4.17;;;2.17;;
21356;SDS011;10836;53.068;18.234;2023-02-27T12:27:03;6.20;;;1.97;;
21356;SDS011;10836;53.068;18.234;2023-02-27T12:29:53;5.20;;;2.13;;
21356;SDS011;10836;53.068;18.234;2023-02-27T12:32:42;5.83;;;2.03;;
21356;SDS011;10836;53.068;18.234;2023-02-27T12:35:29;19.20;;;5.80;;
21356;SDS011;10836;53.068;18.234;2023-02-27T12:37:58;11.83;;;3.57;;
21356;SDS011;10836;53.068;18.234;2023-02-27T12:45:52;13.47;;;4.03;;
21356;SDS011;10836;53.068;18.234;2023-02-27T12:57:11;16.23;;;3.87;;
21356;SDS011;10836;53.068;18.234;2023-02-27T12:59:56;10.63;;;3.83;;
21356;SDS011;10836;53.068;18.234;2023-02-27T13:13:45;2.03;;;1.27;;
21356;SDS011;10836;53.068;18.234;2023-02-27T13:16:17;7.33;;;3.43;;
21356;SDS011;10836;53.068;18.234;2023-02-27T13:21:35;7.90;;;2.87;;
21356;SDS011;10836;53.068;18.234;2023-02-27T13:24:21;5.90;;;2.20;;
21356;SDS011;10836;53.068;18.234;2023-02-27T13:26:59;6.33;;;1.87;;
21356;SDS011;10836;53.068;18.234;2023-02-27T13:29:37;6.18;;;2.00;;
21356;SDS011;10836;53.068;18.234;2023-02-27T13:37:55;4.67;;;1.83;;
21356;SDS011;10836;53.068;18.234;2023-02-27T13:40:34;3.23;;;1.53;;
21356;SDS011;10836;53.068;18.234;2023-02-27T13:43:25;3.47;;;1.23;;
21356;SDS011;10836;53.068;18.234;2023-02-27T13:45:58;9.07;;;2.20;;
21356;SDS011;10836;53.068;18.234;2023-02-27T13:50:59;4.03;;;1.60;;
21356;SDS011;10836;53.068;18.234;2023-02-27T13:53:27;5.87;;;1.30;;
21356;SDS011;10836;53.068;18.234;2023-02-27T13:55:56;5.73;;;1.20;;
21356;SDS011;10836;53.068;18.234;2023-02-27T13:58:43;4.83;;;1.60;;
21356;SDS011;10836;53.068;18.234;2023-02-27T14:01:14;6.07;;;1.40;;
21356;SDS011;10836;53.068;18.234;2023-02-27T14:03:51;6.80;;;2.73;;
21356;SDS011;10836;53.068;18.234;2023-02-27T14:06:19;3.70;;;1.70;;
21356;SDS011;10836;53.068;18.234;2023-02-27T14:08:49;3.77;;;1.40;;
21356;SDS011;10836;53.068;18.234;2023-02-27T14:11:25;3.07;;;1.03;;
21356;SDS011;10836;53.068;18.234;2023-02-27T14:13:56;4.05;;;2.00;;
21356;SDS011;10836;53.068;18.234;2023-02-27T14:21:52;7.80;;;1.90;;
21356;SDS011;10836;53.068;18.234;2023-02-27T14:29:51;2.70;;;1.33;;
21356;SDS011;10836;53.068;18.234;2023-02-27T14:32:23;7.40;;;2.17;;
21356;SDS011;10836;53.068;18.234;2023-02-27T14:34:52;3.63;;;1.90;;
21356;SDS011;10836;53.068;18.234;2023-02-27T14:37:21;5.13;;;1.50;;
21356;SDS011;10836;53.068;18.234;2023-02-27T14:39:52;4.53;;;1.83;;
21356;SDS011;10836;53.068;18.234;2023-02-27T14:45:13;6.13;;;1.67;;
21356;SDS011;10836;53.068;18.234;2023-02-27T14:47:45;5.07;;;2.20;;
21356;SDS011;10836;53.068;18.234;2023-02-27T14:50:20;6.17;;;2.13;;
21356;SDS011;10836;53.068;18.234;2023-02-27T14:52:49;5.30;;;1.93;;
21356;SDS011;10836;53.068;18.234;2023-02-27T14:55:21;7.20;;;2.10;;
21356;SDS011;10836;53.068;18.234;2023-02-27T15:00:29;7.63;;;2.93;;
21356;SDS011;10836;53.068;18.234;2023-02-27T15:02:58;8.37;;;2.50;;
21356;SDS011;10836;53.068;18.234;2023-02-27T15:05:30;6.70;;;2.57;;
21356;SDS011;10836;53.068;18.234;2023-02-27T15:08:00;5.77;;;2.43;;
21356;SDS011;10836;53.068;18.234;2023-02-27T15:10:28;6.90;;;1.80;;
21356;SDS011;10836;53.068;18.234;2023-02-27T15:12:59;5.43;;;2.40;;
21356;SDS011;10836;53.068;18.234;2023-02-27T15:15:27;5.77;;;2.03;;
21356;SDS011;10836;53.068;18.234;2023-02-27T15:17:55;5.60;;;1.40;;
21356;SDS011;10836;53.068;18.234;2023-02-27T15:20:26;4.90;;;1.83;;
21356;SDS011;10836;53.068;18.234;2023-02-27T15:22:56;6.67;;;1.90;;
21356;SDS011;10836;53.068;18.234;2023-02-27T15:25:34;9.80;;;2.80;;
21356;SDS011;10836;53.068;18.234;2023-02-27T15:28:05;6.30;;;1.83;;
21356;SDS011;10836;53.068;18.234;2023-02-27T15:30:33;6.20;;;2.30;;
21356;SDS011;10836;53.068;18.234;2023-02-27T15:33:00;5.60;;;1.90;;
21356;SDS011;10836;53.068;18.234;2023-02-27T15:35:31;4.30;;;1.77;;
21356;SDS011;10836;53.068;18.234;2023-02-27T15:38:02;5.57;;;2.30;;
21356;SDS011;10836;53.068;18.234;2023-02-27T15:40:31;5.83;;;1.90;;
21356;SDS011;10836;53.068;18.234;2023-02-27T15:42:59;7.67;;;2.17;;
21356;SDS011;10836;53.068;18.234;2023-02-27T15:45:31;5.50;;;2.10;;
21356;SDS011;10836;53.068;18.234;2023-02-27T15:48:00;4.37;;;1.90;;
21356;SDS011;10836;53.068;18.234;2023-02-27T15:50:37;8.60;;;2.77;;
21356;SDS011;10836;53.068;18.234;2023-02-27T15:53:09;11.33;;;3.13;;
21356;SDS011;10836;53.068;18.234;2023-02-27T15:55:39;7.33;;;2.80;;
21356;SDS011;10836;53.068;18.234;2023-02-27T15:58:17;7.43;;;2.47;;
21356;SDS011;10836;53.068;18.234;2023-02-27T16:01:07;8.23;;;2.70;;
21356;SDS011;10836;53.068;18.234;2023-02-27T16:03:40;7.53;;;2.30;;
21356;SDS011;10836;53.068;18.234;2023-02-27T16:06:14;8.13;;;2.50;;
21356;SDS011;10836;53.068;18.234;2023-02-27T16:08:45;8.57;;;3.60;;
21356;SDS011;10836;53.068;18.234;2023-02-27T16:11:25;6.53;;;2.40;;
21356;SDS011;10836;53.068;18.234;2023-02-27T16:13:54;7.90;;;3.57;;
21356;SDS011;10836;53.068;18.234;2023-02-27T16:18:54;6.40;;;2.60;;
21356;SDS011;10836;53.068;18.234;2023-02-27T16:21:27;8.17;;;2.87;;
21356;SDS011;10836;53.068;18.234;2023-02-27T16:24:16;6.43;;;2.70;;
21356;SDS011;10836;53.068;18.234;2023-02-27T16:26:49;7.77;;;2.50;;
21356;SDS011;10836;53.068;18.234;2023-02-27T16:29:19;7.33;;;2.83;;
21356;SDS011;10836;53.068;18.234;2023-02-27T16:31:55;8.63;;;2.97;;
21356;SDS011;10836;53.068;18.234;2023-02-27T16:34:25;7.67;;;3.57;;
21356;SDS011;10836;53.068;18.234;2023-02-27T16:37:20;7.40;;;2.60;;
21356;SDS011;10836;53.068;18.234;2023-02-27T16:39:49;7.27;;;2.07;;
21356;SDS011;10836;53.068;18.234;2023-02-27T16:42:17;9.13;;;2.77;;
21356;SDS011;10836;53.068;18.234;2023-02-27T16:44:44;9.27;;;2.87;;
21356;SDS011;10836;53.068;18.234;2023-02-27T16:47:12;7.50;;;3.03;;
21356;SDS011;10836;53.068;18.234;2023-02-27T16:49:38;11.00;;;3.97;;
21356;SDS011;10836;53.068;18.234;2023-02-27T16:52:07;15.73;;;4.67;;
21356;SDS011;10836;53.068;18.234;2023-02-27T16:54:36;13.60;;;5.10;;
21356;SDS011;10836;53.068;18.234;2023-02-27T16:57:03;18.13;;;5.87;;
21356;SDS011;10836;53.068;18.234;2023-02-27T16:59:31;18.57;;;5.97;;
21356;SDS011;10836;53.068;18.234;2023-02-27T17:02:04;20.10;;;6.87;;
21356;SDS011;10836;53.068;18.234;2023-02-27T17:04:33;23.30;;;7.60;;
21356;SDS011;10836;53.068;18.234;2023-02-27T17:07:02;19.33;;;6.40;;